Time;durP1;ratioP1;P1;durP2;ratioP2;P2;SDS_P1;SDS_P2;PMS_P1;PMS_P2;Temp;Humidity;BMP_temperature;BMP_pressure;BME280_temperature;BME280_humidity;BME280_pressure;Samples;Min_cycle;Max_cycle;Signal;HPM_P1;HPM_P2
2022/05/11 00:00:20;;;;;;;;;;;;;;;21.14;51.25;99933.91;2082425;28;19908;-44
2022/05/11 00:01:21;;;;;;;;;;;;;;;21.14;51.35;99936.63;2085470;28;19913;-43
2022/05/11 00:02:21;;;;;;;;;;;;;;;21.14;51.53;99933.91;2084322;28;20118;-44
2022/05/11 00:03:22;;;;;;;;;;;;;;;21.13;51.41;99933.03;2085625;28;19916;-45
2022/05/11 00:04:22;;;;;;;;;;;;;;;21.14;51.21;99936.63;2084231;28;19912;-43
2022/05/11 00:05:23;;;;;;;;;;;;;;;21.13;51.33;99933.03;2084187;28;20714;-44
2022/05/11 00:06:23;;;;;;;;;;;;;;;21.13;51.34;99933.03;2084980;28;20141;-45
2022/05/11 00:07:24;;;;;;;;;;;;;;;21.14;51.37;99931.16;2085542;28;20768;-43
2022/05/11 00:08:24;;;;;;;;;;;;;;;21.14;51.45;99933.91;2084852;28;20630;-44
2022/05/11 00:09:24;;;;;;;;;;;;;;;21.13;51.57;99930.31;2085547;28;19969;-44
2022/05/11 00:10:25;;;;;;;;;;;;;;;21.14;51.39;99937.53;2090195;28;19955;-44
2022/05/11 00:11:27;;;;;;;;;;;;;;;21.13;51.26;99923.97;2084733;28;20368;-43
2022/05/11 00:12:27;;;;;;;;;;;;;;;21.13;51.60;99926.72;2082728;28;20350;-44
2022/05/11 00:13:28;;;;;;;;;;;;;;;21.13;51.36;99924.81;2085794;28;19927;-44
2022/05/11 00:14:28;;;;;;;;;;;;;;;21.13;51.41;99924.81;2082027;28;19935;-43
2022/05/11 00:15:29;;;;;;;;;;;;;;;21.13;51.53;99923.97;2083460;28;20405;-44
2022/05/11 00:16:30;;;;;;;;;;;;;;;21.14;51.21;99925.66;2083379;28;19927;-43
2022/05/11 00:17:31;;;;;;;;;;;;;;;21.13;51.54;99924.81;2087183;28;20011;-42
2022/05/11 00:18:31;;;;;;;;;;;;;;;21.12;51.45;99928.59;2084997;28;19916;-42
2022/05/11 00:19:32;;;;;;;;;;;;;;;21.13;51.29;99924.81;2072450;28;19940;-42
2022/05/11 00:20:32;;;;;;;;;;;;;;;21.13;51.53;99927.56;2075881;28;19980;-43
2022/05/11 00:21:32;;;;;;;;;;;;;;;21.13;51.46;99923.97;2084504;28;19920;-46
2022/05/11 00:22:34;;;;;;;;;;;;;;;21.13;51.57;99923.97;2082982;28;19917;-43
2022/05/11 00:23:34;;;;;;;;;;;;;;;21.13;51.43;99929.44;2085746;28;19950;-42
2022/05/11 00:24:36;;;;;;;;;;;;;;;21.13;51.58;99921.22;2083653;28;19924;-42
2022/05/11 00:25:36;;;;;;;;;;;;;;;21.12;51.43;99927.75;2087485;28;19916;-43
2022/05/11 00:26:37;;;;;;;;;;;;;;;21.12;51.76;99927.75;2078632;28;20031;-44
2022/05/11 00:27:37;;;;;;;;;;;;;;;21.12;51.52;99916.78;2071585;28;19920;-42
2022/05/11 00:28:38;;;;;;;;;;;;;;;21.12;51.52;99914.03;2085119;28;20486;-42
2022/05/11 00:29:38;;;;;;;;;;;;;;;21.11;51.60;99913.16;2085247;28;19917;-43
2022/05/11 00:30:38;;;;;;;;;;;;;;;21.11;51.62;99920.53;2083626;28;19921;-44
2022/05/11 00:31:39;;;;;;;;;;;;;;;21.10;51.65;99918.81;2084848;28;19935;-43
2022/05/11 00:32:39;;;;;;;;;;;;;;;21.11;51.46;99915.06;2084624;28;19909;-42
2022/05/11 00:33:40;;;;;;;;;;;;;;;21.11;51.67;99917.78;2086182;28;19923;-42
2022/05/11 00:34:40;;;;;;;;;;;;;;;21.10;51.52;99921.56;2082538;28;19924;-43
2022/05/11 00:35:41;;;;;;;;;;;;;;;21.11;51.42;99910.41;2086118;28;19912;-43
2022/05/11 00:36:41;;;;;;;;;;;;;;;21.11;51.68;99915.06;2084524;28;19917;-43
2022/05/11 00:37:42;;;;;;;;;;;;;;;21.11;51.67;99912.31;2083988;28;20207;-43
2022/05/11 00:38:44;;;;;;;;;;;;;;;21.12;51.65;99911.31;2085243;28;20378;-42
2022/05/11 00:39:45;;;;;;;;;;;;;;;21.12;51.52;99905.81;2084540;28;19915;-42
2022/05/11 00:40:50;;;;;;;;;;;;;;;21.11;51.53;99902.19;2082467;28;19909;-43
2022/05/11 00:41:51;;;;;;;;;;;;;;;21.12;51.44;99903.09;2083700;28;20008;-43
2022/05/11 00:42:52;;;;;;;;;;;;;;;21.10;51.38;99902.38;2084862;28;19934;-42
2022/05/11 00:43:54;;;;;;;;;;;;;;;21.12;51.63;99905.81;2083060;28;19982;-43
2022/05/11 00:44:54;;;;;;;;;;;;;;;21.12;51.47;99900.34;2085442;28;19972;-44
2022/05/11 00:46:02;;;;;;;;;;;;;;;21.12;51.58;99894.84;2082856;28;19923;-43
2022/05/11 00:47:07;;;;;;;;;;;;;;;21.11;51.86;99893.97;2083319;28;19950;-44
2022/05/11 00:49:40;;;;;;;;;;;;;;;21.10;51.68;99896.91;2085479;28;20101;-44
2022/05/11 00:50:40;;;;;;;;;;;;;;;21.11;51.86;99904.09;2082609;28;20198;-44
2022/05/11 00:51:43;;;;;;;;;;;;;;;21.10;51.73;99910.59;2083843;28;20759;-45
2022/05/11 00:52:47;;;;;;;;;;;;;;;21.10;51.64;99905.13;2075697;28;20644;-44
2022/05/11 00:53:50;;;;;;;;;;;;;;;21.09;51.81;99900.66;2075821;28;19923;-44
2022/05/11 00:54:51;;;;;;;;;;;;;;;21.10;51.93;99899.66;2083269;28;19920;-43
2022/05/11 00:55:53;;;;;;;;;;;;;;;21.09;51.80;99900.66;2084598;28;19948;-44
2022/05/11 00:56:55;;;;;;;;;;;;;;;21.09;52.02;99903.38;2084580;28;19921;-45
2022/05/11 00:58:02;;;;;;;;;;;;;;;21.09;51.73;99901.53;2074821;28;19952;-43
2022/05/11 00:59:10;;;;;;;;;;;;;;;21.08;52.05;99901.69;2075384;28;20379;-44
2022/05/11 01:00:11;;;;;;;;;;;;;;;21.09;52.02;99901.53;2085751;28;19923;-43
2022/05/11 01:01:12;;;;;;;;;;;;;;;21.10;51.86;99902.38;2083328;28;19931;-45
2022/05/11 01:02:12;;;;;;;;;;;;;;;21.09;51.72;99895.16;2067861;28;19917;-43
2022/05/11 01:03:14;;;;;;;;;;;;;;;21.11;51.95;99893.13;2066665;28;19921;-44
2022/05/11 01:04:16;;;;;;;;;;;;;;;21.10;52.02;99896.91;2082683;28;20067;-43
2022/05/11 01:05:17;;;;;;;;;;;;;;;21.10;52.18;99891.41;2084515;28;19982;-45
2022/05/11 01:06:18;;;;;;;;;;;;;;;21.10;51.80;99891.41;2083643;28;19923;-44
2022/05/11 01:07:19;;;;;;;;;;;;;;;21.09;52.00;99897.91;2085295;28;19916;-43
2022/05/11 01:08:20;;;;;;;;;;;;;;;21.10;52.09;99891.41;2084669;28;20339;-43
2022/05/11 01:09:21;;;;;;;;;;;;;;;21.09;51.88;99895.16;2075692;28;20036;-44
2022/05/11 01:10:23;;;;;;;;;;;;;;;21.09;51.89;99892.44;2076530;28;19963;-45
2022/05/11 01:11:23;;;;;;;;;;;;;;;21.09;52.04;99886.94;2082849;28;19920;-43
2022/05/11 01:12:35;;;;;;;;;;;;;;;21.09;51.86;99889.69;2084558;28;19917;-43
2022/05/11 01:13:37;;;;;;;;;;;;;;;21.09;52.29;99890.56;2084768;28;19920;-43
2022/05/11 01:14:39;;;;;;;;;;;;;;;21.08;51.93;99894.31;2082443;28;19970;-43
2022/05/11 01:15:40;;;;;;;;;;;;;;;21.09;52.12;99889.69;2084449;28;19916;-45
2022/05/11 01:16:41;;;;;;;;;;;;;;;21.09;52.08;99884.22;2083958;28;19913;-44
2022/05/11 01:17:42;;;;;;;;;;;;;;;21.08;52.28;99888.84;2085147;28;20142;-43
2022/05/11 01:18:42;;;;;;;;;;;;;;;21.08;52.13;99882.50;2084415;28;20745;-44
2022/05/11 01:19:44;;;;;;;;;;;;;;;21.07;52.19;99880.78;2084210;28;20900;-43
2022/05/11 01:20:44;;;;;;;;;;;;;;;21.07;52.14;99887.13;2084932;28;20003;-43
2022/05/11 01:21:49;;;;;;;;;;;;;;;21.07;52.38;99876.19;2082628;28;20235;-43
2022/05/11 01:23:08;;;;;;;;;;;;;;;21.06;52.29;99881.81;2081172;28;19920;-44
2022/05/11 01:24:41;;;;;;;;;;;;;;;21.07;52.39;99886.25;2083996;28;19917;-45
2022/05/11 01:25:41;;;;;;;;;;;;;;;21.06;52.54;99882.66;2058883;28;20703;-44
2022/05/11 01:26:42;;;;;;;;;;;;;;;21.06;52.24;99879.06;2074531;28;20232;-43
2022/05/11 01:27:43;;;;;;;;;;;;;;;21.06;52.18;99873.59;2084615;28;20303;-45
2022/05/11 01:28:45;;;;;;;;;;;;;;;21.06;52.13;99879.06;2083827;28;20314;-45
2022/05/11 01:29:46;;;;;;;;;;;;;;;21.05;52.06;99878.22;2084895;28;19916;-43
2022/05/11 01:30:51;;;;;;;;;;;;;;;21.06;52.28;99873.59;2082520;28;19986;-44
2022/05/11 01:31:51;;;;;;;;;;;;;;;21.07;52.31;99869.81;2072984;28;19916;-43
2022/05/11 01:32:53;;;;;;;;;;;;;;;21.07;52.34;99872.56;2076232;28;19913;-43
2022/05/11 01:33:54;;;;;;;;;;;;;;;21.06;52.28;99862.63;2084148;28;19920;-45
2022/05/11 01:35:15;;;;;;;;;;;;;;;21.07;52.23;99869.81;2084984;28;19917;-41
2022/05/11 01:36:30;;;;;;;;;;;;;;;21.06;52.19;99866.22;2069785;28;20122;-43
2022/05/11 01:37:32;;;;;;;;;;;;;;;21.06;52.04;99874.44;2083469;28;20325;-44
2022/05/11 01:38:39;;;;;;;;;;;;;;;21.06;52.30;99865.38;2081397;28;20258;-44
2022/05/11 01:39:39;;;;;;;;;;;;;;;21.06;52.37;99868.09;2083960;28;20628;-43
2022/05/11 01:40:40;;;;;;;;;;;;;;;21.06;52.31;99865.38;2083266;28;19923;-43
2022/05/11 01:41:49;;;;;;;;;;;;;;;21.06;52.14;99863.47;2065427;28;20331;-42
2022/05/11 01:42:49;;;;;;;;;;;;;;;21.05;52.19;99869.16;2069492;28;20020;-44
2022/05/11 01:43:51;;;;;;;;;;;;;;;21.05;52.32;99860.94;2081736;28;20209;-44
2022/05/11 01:44:51;;;;;;;;;;;;;;;21.05;52.27;99864.53;2083205;28;19924;-44
2022/05/11 01:45:52;;;;;;;;;;;;;;;21.05;52.54;99866.41;2085009;28;19989;-44
2022/05/11 01:46:53;;;;;;;;;;;;;;;21.04;52.54;99859.19;2083695;28;20370;-43
2022/05/11 01:47:54;;;;;;;;;;;;;;;21.04;52.54;99861.94;2084458;28;20480;-43
2022/05/11 01:48:55;;;;;;;;;;;;;;;21.04;52.48;99864.66;2084301;28;19965;-46
2022/05/11 01:49:55;;;;;;;;;;;;;;;21.03;52.62;99857.50;2084210;28;20237;-44
2022/05/11 01:50:55;;;;;;;;;;;;;;;21.03;52.49;99863.81;2083921;28;20273;-44
2022/05/11 01:51:56;;;;;;;;;;;;;;;21.04;52.56;99859.19;2081816;28;19930;-44
2022/05/11 01:52:56;;;;;;;;;;;;;;;21.04;52.60;99857.31;2084485;28;20397;-44
2022/05/11 01:53:56;;;;;;;;;;;;;;;21.04;52.56;99857.31;2083456;28;19916;-44
2022/05/11 01:54:57;;;;;;;;;;;;;;;21.04;52.28;99859.19;2082602;28;19912;-44
2022/05/11 01:55:57;;;;;;;;;;;;;;;21.04;52.60;99853.72;2084073;28;19916;-42
2022/05/11 01:56:59;;;;;;;;;;;;;;;21.04;52.61;99853.72;2083997;28;19916;-42
2022/05/11 01:58:01;;;;;;;;;;;;;;;21.04;52.38;99854.56;2084687;28;19920;-42
2022/05/11 01:59:01;;;;;;;;;;;;;;;21.05;52.68;99855.44;2083806;28;19905;-43
2022/05/11 02:00:03;;;;;;;;;;;;;;;21.04;52.50;99861.94;2084064;28;19916;-42
2022/05/11 02:01:04;;;;;;;;;;;;;;;21.04;52.47;99854.56;2083891;28;19921;-43
2022/05/11 02:02:04;;;;;;;;;;;;;;;21.05;52.42;99855.44;2082562;28;19920;-42
2022/05/11 02:03:05;;;;;;;;;;;;;;;21.03;52.54;99855.59;2086085;28;19920;-43
2022/05/11 02:07:49;;;;;;;;;;;;;;;21.04;52.53;99848.22;2083462;28;20868;-45
2022/05/11 02:08:04;;;;;;;;;;;;;;;21.04;52.68;99853.72;2086419;28;19916;-43
2022/05/11 02:09:05;;;;;;;;;;;;;;;21.03;52.78;99857.50;2083948;28;20805;-43
2022/05/11 02:10:05;;;;;;;;;;;;;;;21.03;52.69;99860.22;2082755;28;19931;-43
2022/05/11 02:11:06;;;;;;;;;;;;;;;21.03;52.69;99857.50;2083689;28;20541;-42
2022/05/11 02:12:07;;;;;;;;;;;;;;;21.03;52.58;99857.50;2074344;28;20074;-43
2022/05/11 02:13:07;;;;;;;;;;;;;;;21.03;52.63;99854.75;2075316;28;19916;-42
2022/05/11 02:14:08;;;;;;;;;;;;;;;21.03;52.70;99857.50;2080436;28;19920;-42
2022/05/11 02:15:09;;;;;;;;;;;;;;;21.02;52.82;99859.38;2083237;28;19924;-42
2022/05/11 02:16:10;;;;;;;;;;;;;;;21.01;52.99;99857.66;2084065;28;19917;-43
2022/05/11 02:17:10;;;;;;;;;;;;;;;21.01;52.73;99849.44;2084961;28;19909;-43
2022/05/11 02:18:11;;;;;;;;;;;;;;;21.02;52.96;99855.75;2083677;28;19916;-42
2022/05/11 02:19:11;;;;;;;;;;;;;;;21.01;52.85;99854.06;2084721;28;19916;-45
2022/05/11 02:20:13;;;;;;;;;;;;;;;21.00;52.83;99853.22;2084958;28;19935;-42
2022/05/11 02:21:13;;;;;;;;;;;;;;;21.01;52.98;99851.31;2081522;28;19927;-42
2022/05/11 02:22:14;;;;;;;;;;;;;;;21.01;52.87;99854.06;2083543;28;19916;-42
2022/05/11 02:23:16;;;;;;;;;;;;;;;21.01;52.83;99849.44;2082881;28;19920;-43
2022/05/11 02:24:18;;;;;;;;;;;;;;;21.01;52.73;99851.31;2081305;28;19916;-43
2022/05/11 02:25:19;;;;;;;;;;;;;;;21.01;52.80;99854.91;2079341;28;19920;-42
2022/05/11 02:26:19;;;;;;;;;;;;;;;21.01;52.83;99854.91;2082800;28;20001;-45
2022/05/11 02:27:20;;;;;;;;;;;;;;;21.01;52.96;99848.56;2082547;28;20397;-43
2022/05/11 02:28:21;;;;;;;;;;;;;;;21.02;52.65;99850.28;2081710;28;19994;-43
2022/05/11 02:29:23;;;;;;;;;;;;;;;21.01;52.65;99848.56;2074418;28;19917;-44
2022/05/11 02:30:25;;;;;;;;;;;;;;;21.01;52.98;99848.56;2072967;28;19920;-43
2022/05/11 02:31:25;;;;;;;;;;;;;;;21.01;52.77;99851.31;2082960;28;19921;-43
2022/05/11 02:32:26;;;;;;;;;;;;;;;21.01;52.72;99848.56;2081036;28;19966;-43
2022/05/11 02:33:27;;;;;;;;;;;;;;;21.00;52.89;99852.34;2084119;28;19917;-43
2022/05/11 02:35:46;;;;;;;;;;;;;;;21.01;53.01;99845.84;2079897;28;20457;-44
2022/05/11 02:36:47;;;;;;;;;;;;;;;21.00;52.87;99852.34;2085275;28;20002;-43
2022/05/11 02:37:55;;;;;;;;;;;;;;;21.00;53.07;99852.34;2082108;28;20271;-44
2022/05/11 02:38:55;;;;;;;;;;;;;;;20.98;53.14;99850.63;2085549;28;19916;-43
2022/05/11 02:39:55;;;;;;;;;;;;;;;21.00;52.92;99844.13;2082409;28;20896;-43
2022/05/11 02:40:56;;;;;;;;;;;;;;;20.97;53.06;99840.69;2083614;28;19970;-45
2022/05/11 02:41:56;;;;;;;;;;;;;;;20.98;52.91;99847.03;2082906;28;19920;-45
2022/05/11 02:42:57;;;;;;;;;;;;;;;20.98;53.09;99847.03;2084408;28;20285;-43
2022/05/11 02:43:57;;;;;;;;;;;;;;;20.97;52.99;99840.69;2083098;28;20354;-45
2022/05/11 02:44:58;;;;;;;;;;;;;;;20.97;52.89;99843.44;2083500;28;20011;-43
2022/05/11 02:45:58;;;;;;;;;;;;;;;20.98;53.00;99845.16;2071673;28;19987;-44
2022/05/11 02:46:58;;;;;;;;;;;;;;;20.97;52.94;99843.44;2073224;28;19956;-43
2022/05/11 02:48:01;;;;;;;;;;;;;;;20.98;53.00;99845.16;2080296;28;20629;-43
2022/05/11 02:49:02;;;;;;;;;;;;;;;20.98;53.05;99845.16;2073718;28;19921;-43
2022/05/11 02:50:06;;;;;;;;;;;;;;;20.98;53.06;99845.16;2074408;28;19917;-43
2022/05/11 02:51:07;;;;;;;;;;;;;;;20.98;52.96;99845.16;2084140;28;19916;-44
2022/05/11 02:52:07;;;;;;;;;;;;;;;20.98;53.00;99845.16;2088107;28;19917;-41
2022/05/11 02:53:09;;;;;;;;;;;;;;;20.98;53.13;99845.16;2080606;28;19974;-42
2022/05/11 02:54:10;;;;;;;;;;;;;;;21.00;53.12;99841.41;2083261;28;20346;-43
2022/05/11 02:55:10;;;;;;;;;;;;;;;20.99;53.14;99840.50;2080916;28;19962;-43
2022/05/11 02:56:11;;;;;;;;;;;;;;;20.97;52.99;99843.44;2081899;28;19927;-43
2022/05/11 02:57:11;;;;;;;;;;;;;;;20.98;53.00;99845.16;2079981;28;19946;-43
2022/05/11 02:58:12;;;;;;;;;;;;;;;20.98;52.81;99844.28;2083455;28;20323;-42
2022/05/11 02:59:13;;;;;;;;;;;;;;;20.98;52.80;99845.16;2082041;28;20378;-42
2022/05/11 03:00:15;;;;;;;;;;;;;;;20.98;52.99;99836.91;2081319;28;20098;-43
2022/05/11 03:01:15;;;;;;;;;;;;;;;20.97;52.84;99843.44;2082077;28;19921;-44
2022/05/11 03:02:20;;;;;;;;;;;;;;;20.98;53.13;99844.28;2080892;28;20296;-44
2022/05/11 03:03:21;;;;;;;;;;;;;;;20.97;53.00;99843.44;2073815;28;19970;-43
2022/05/11 03:04:22;;;;;;;;;;;;;;;20.98;53.00;99844.28;2070992;28;20023;-42
2022/05/11 03:05:22;;;;;;;;;;;;;;;20.98;53.22;99844.28;2087831;28;19928;-44
2022/05/11 03:06:22;;;;;;;;;;;;;;;20.97;53.16;99840.69;2081694;28;20170;-44
2022/05/11 03:07:23;;;;;;;;;;;;;;;20.96;53.19;99836.22;2082352;28;19913;-42
2022/05/11 03:08:23;;;;;;;;;;;;;;;20.95;53.21;99837.25;2083703;28;19917;-43
2022/05/11 03:09:23;;;;;;;;;;;;;;;20.95;53.18;99840.00;2082877;28;19927;-43
2022/05/11 03:10:24;;;;;;;;;;;;;;;20.96;53.28;99838.13;2083250;28;19923;-43
2022/05/11 03:11:24;;;;;;;;;;;;;;;20.96;53.27;99841.72;2083893;28;19920;-43
2022/05/11 03:12:25;;;;;;;;;;;;;;;20.95;53.39;99840.00;2083033;28;19917;-41
2022/05/11 03:13:26;;;;;;;;;;;;;;;20.94;53.19;99832.78;2084906;28;19920;-42
2022/05/11 03:14:26;;;;;;;;;;;;;;;20.95;53.12;99840.00;2073632;28;20020;-43
2022/05/11 03:15:27;;;;;;;;;;;;;;;20.94;53.50;99835.53;2074177;28;19916;-43
2022/05/11 03:16:28;;;;;;;;;;;;;;;20.95;53.26;99839.16;2084458;28;20254;-43
2022/05/11 03:17:28;;;;;;;;;;;;;;;20.95;53.18;99839.16;2082638;28;19928;-42
2022/05/11 03:18:28;;;;;;;;;;;;;;;20.94;53.33;99835.53;2084673;28;19912;-42
2022/05/11 03:19:29;;;;;;;;;;;;;;;20.94;53.24;99832.78;2085236;28;19916;-42
2022/05/11 03:20:29;;;;;;;;;;;;;;;20.95;53.31;99837.25;2082763;28;20563;-43
2022/05/11 03:21:30;;;;;;;;;;;;;;;20.94;53.41;99838.28;2072054;28;19956;-44
2022/05/11 03:22:31;;;;;;;;;;;;;;;20.95;53.16;99831.78;2075415;28;19987;-43
2022/05/11 03:23:31;;;;;;;;;;;;;;;20.94;53.12;99835.53;2082852;28;19913;-43
2022/05/11 03:24:32;;;;;;;;;;;;;;;20.95;53.25;99829.03;2083893;28;20067;-42
2022/05/11 03:25:32;;;;;;;;;;;;;;;20.95;53.27;99833.69;2083587;28;20295;-43
2022/05/11 03:26:34;;;;;;;;;;;;;;;20.94;53.34;99835.53;2082629;28;19965;-43
2022/05/11 03:27:34;;;;;;;;;;;;;;;20.94;53.28;99832.78;2073175;28;20220;-43
2022/05/11 03:28:34;;;;;;;;;;;;;;;20.93;53.35;99833.84;2077665;28;19999;-42
2022/05/11 03:29:35;;;;;;;;;;;;;;;20.94;53.40;99827.31;2081512;28;19964;-42
2022/05/11 03:30:35;;;;;;;;;;;;;;;20.93;53.40;99828.34;2082885;28;19920;-44
2022/05/11 03:31:36;;;;;;;;;;;;;;;20.93;53.52;99833.84;2086427;28;19921;-45
2022/05/11 03:35:14;;;;;;;;;;;;;;;20.93;53.30;99830.25;2074985;28;19960;-43
2022/05/11 03:36:15;;;;;;;;;;;;;;;20.92;53.46;99825.78;2079022;28;19925;-44
2022/05/11 03:37:17;;;;;;;;;;;;;;;20.91;53.37;99827.66;2080662;28;19919;-43
2022/05/11 03:38:17;;;;;;;;;;;;;;;20.93;53.43;99827.50;2082735;28;19921;-43
2022/05/11 03:39:18;;;;;;;;;;;;;;;20.92;53.38;99826.66;2084281;28;19916;-44
2022/05/11 03:40:18;;;;;;;;;;;;;;;20.91;53.27;99827.66;2084581;28;19916;-44
2022/05/11 03:41:19;;;;;;;;;;;;;;;20.93;53.48;99831.09;2082740;28;20616;-43
2022/05/11 03:42:22;;;;;;;;;;;;;;;20.93;53.42;99841.19;2083413;28;19909;-43
2022/05/11 03:43:22;;;;;;;;;;;;;;;20.92;53.25;99831.25;2085057;28;19924;-44
2022/05/11 03:44:23;;;;;;;;;;;;;;;20.91;53.32;99830.41;2080421;28;20179;-43
2022/05/11 03:45:24;;;;;;;;;;;;;;;20.92;53.28;99831.25;2084013;28;19959;-43
2022/05/11 03:46:25;;;;;;;;;;;;;;;20.93;53.36;99832.97;2082923;28;19909;-44
2022/05/11 03:47:25;;;;;;;;;;;;;;;20.91;53.44;99833.13;2084126;28;20240;-43
2022/05/11 03:48:25;;;;;;;;;;;;;;;20.92;53.26;99834.00;2085669;28;20319;-42
2022/05/11 03:49:27;;;;;;;;;;;;;;;20.92;53.39;99823.03;2080969;28;20018;-43
2022/05/11 03:50:28;;;;;;;;;;;;;;;20.92;53.20;99836.72;2071262;28;19917;-43
2022/05/11 03:51:28;;;;;;;;;;;;;;;20.92;53.22;99829.38;2074559;28;19916;-43
2022/05/11 03:52:28;;;;;;;;;;;;;;;20.91;53.38;99833.13;2074435;28;20015;-44
2022/05/11 03:53:29;;;;;;;;;;;;;;;20.93;53.34;99838.47;2077847;28;20786;-42
2022/05/11 03:54:29;;;;;;;;;;;;;;;20.91;53.48;99833.13;2083214;28;20490;-42
2022/05/11 03:55:30;;;;;;;;;;;;;;;20.92;53.34;99836.72;2078153;28;20018;-43
2022/05/11 03:56:30;;;;;;;;;;;;;;;20.91;53.53;99835.88;2085526;28;20430;-42
2022/05/11 03:57:32;;;;;;;;;;;;;;;20.90;53.39;99836.91;2083633;28;20302;-44
2022/05/11 03:58:32;;;;;;;;;;;;;;;20.91;53.38;99837.75;2083388;28;20248;-43
2022/05/11 03:59:32;;;;;;;;;;;;;;;20.91;53.48;99835.03;2080059;28;20453;-42
2022/05/11 04:00:33;;;;;;;;;;;;;;;20.90;53.56;99830.59;2090747;28;19924;-44
2022/05/11 04:01:34;;;;;;;;;;;;;;;20.89;53.62;99835.19;2092919;28;19921;-42
2022/05/11 04:02:35;;;;;;;;;;;;;;;20.89;53.54;99829.69;2084281;28;19916;-43
2022/05/11 04:03:35;;;;;;;;;;;;;;;20.89;53.41;99829.69;2072547;28;19936;-42
2022/05/11 04:04:35;;;;;;;;;;;;;;;20.88;53.65;99833.47;2077150;28;19916;-43
2022/05/11 04:05:36;;;;;;;;;;;;;;;20.88;53.66;99833.47;2085990;28;19923;-42
2022/05/11 04:06:36;;;;;;;;;;;;;;;20.88;53.56;99833.47;2080429;28;19935;-43
2022/05/11 04:07:37;;;;;;;;;;;;;;;20.88;53.40;99832.63;2070515;28;19964;-43
2022/05/11 04:08:37;;;;;;;;;;;;;;;20.88;53.41;99829.88;2069951;28;19936;-43
2022/05/11 04:09:37;;;;;;;;;;;;;;;20.87;53.40;99831.78;2084711;28;19916;-43
2022/05/11 04:10:38;;;;;;;;;;;;;;;20.87;53.55;99831.78;2078209;28;19920;-44
2022/05/11 04:11:38;;;;;;;;;;;;;;;20.87;53.73;99831.78;2084047;28;19939;-43
2022/05/11 04:12:39;;;;;;;;;;;;;;;20.87;53.45;99831.78;2087238;28;19916;-43
2022/05/11 04:13:40;;;;;;;;;;;;;;;20.87;53.66;99831.78;2082589;28;19924;-44
2022/05/11 04:14:40;;;;;;;;;;;;;;;20.88;53.42;99836.22;2085169;28;19916;-43
2022/05/11 04:15:40;;;;;;;;;;;;;;;20.87;53.51;99829.03;2083337;28;19927;-44
2022/05/11 04:16:41;;;;;;;;;;;;;;;20.87;53.51;99830.91;2084263;28;19916;-45
2022/05/11 04:17:42;;;;;;;;;;;;;;;20.88;53.59;99824.41;2085479;28;20406;-43
2022/05/11 04:18:43;;;;;;;;;;;;;;;20.87;53.54;99826.31;2077282;28;19967;-44
2022/05/11 04:19:43;;;;;;;;;;;;;;;20.87;53.39;99820.81;2085822;28;20137;-44
2022/05/11 04:20:44;;;;;;;;;;;;;;;20.86;53.70;99830.06;2084458;28;19968;-43
2022/05/11 04:21:44;;;;;;;;;;;;;;;20.87;53.58;99829.03;2074613;28;19936;-43
2022/05/11 04:22:45;;;;;;;;;;;;;;;20.87;53.64;99831.78;2068532;28;19928;-43
2022/05/11 04:23:45;;;;;;;;;;;;;;;20.88;53.57;99833.47;2068883;28;20251;-42
2022/05/11 04:24:46;;;;;;;;;;;;;;;20.87;53.58;99826.31;2080076;28;19951;-43
2022/05/11 04:25:46;;;;;;;;;;;;;;;20.88;53.40;99827.16;2071224;28;20153;-43
2022/05/11 04:26:47;;;;;;;;;;;;;;;20.87;53.45;99829.03;2078078;28;19998;-43
2022/05/11 04:27:48;;;;;;;;;;;;;;;20.87;53.61;99834.53;2084701;28;20476;-43
2022/05/11 04:28:48;;;;;;;;;;;;;;;20.87;53.41;99837.25;2084767;28;19917;-42
2022/05/11 04:29:49;;;;;;;;;;;;;;;20.87;53.53;99829.03;2073322;28;19959;-42
2022/05/11 04:30:49;;;;;;;;;;;;;;;20.86;53.80;99832.78;2073956;28;19916;-43
2022/05/11 04:31:56;;;;;;;;;;;;;;;20.86;53.51;99835.53;2084201;28;19939;-43
2022/05/11 04:32:58;;;;;;;;;;;;;;;20.86;53.66;99830.06;2083162;28;20437;-44
2022/05/11 04:33:58;;;;;;;;;;;;;;;20.86;53.51;99835.53;2084111;28;19917;-44
2022/05/11 04:34:58;;;;;;;;;;;;;;;20.87;53.62;99833.63;2084595;28;19982;-45
2022/05/11 04:35:58;;;;;;;;;;;;;;;20.87;53.64;99831.78;2077924;28;19955;-43
2022/05/11 04:36:59;;;;;;;;;;;;;;;20.86;53.60;99830.06;2084421;28;20196;-43
2022/05/11 04:38:00;;;;;;;;;;;;;;;20.87;53.61;99833.63;2080643;28;20348;-45
2022/05/11 04:39:00;;;;;;;;;;;;;;;20.87;53.57;99830.91;2086435;28;19923;-43
2022/05/11 04:40:01;;;;;;;;;;;;;;;20.86;53.51;99829.19;2084917;28;19912;-43
2022/05/11 04:41:01;;;;;;;;;;;;;;;20.86;53.54;99835.53;2082324;28;19916;-43
2022/05/11 04:42:02;;;;;;;;;;;;;;;20.86;53.55;99824.56;2085370;28;19915;-43
2022/05/11 04:43:07;;;;;;;;;;;;;;;20.87;53.72;99830.91;2082901;28;20205;-44
2022/05/11 04:44:08;;;;;;;;;;;;;;;20.86;53.65;99827.31;2080950;28;19923;-43
2022/05/11 04:45:08;;;;;;;;;;;;;;;20.86;53.49;99830.06;2084913;28;20033;-44
2022/05/11 04:46:09;;;;;;;;;;;;;;;20.86;53.72;99835.53;2083058;28;19963;-42
2022/05/11 04:47:10;;;;;;;;;;;;;;;20.86;53.63;99830.06;2084912;28;20715;-44
2022/05/11 04:48:11;;;;;;;;;;;;;;;20.86;53.51;99832.78;2076860;28;19939;-43
2022/05/11 04:49:19;;;;;;;;;;;;;;;20.87;53.59;99830.91;2075185;28;19909;-43
2022/05/11 04:50:19;;;;;;;;;;;;;;;20.86;53.64;99830.06;2075126;28;20008;-43
2022/05/11 04:51:20;;;;;;;;;;;;;;;20.87;53.61;99837.25;2075518;28;19908;-43
2022/05/11 04:52:20;;;;;;;;;;;;;;;20.87;53.71;99831.78;2084698;28;20309;-43
2022/05/11 04:53:20;;;;;;;;;;;;;;;20.87;53.71;99837.25;2083958;28;19923;-43
2022/05/11 04:54:21;;;;;;;;;;;;;;;20.86;53.77;99831.94;2083756;28;19924;-43
2022/05/11 04:55:21;;;;;;;;;;;;;;;20.86;53.83;99830.06;2083212;28;20285;-43
2022/05/11 04:56:21;;;;;;;;;;;;;;;20.86;53.66;99834.69;2084178;28;19955;-44
2022/05/11 04:57:22;;;;;;;;;;;;;;;20.86;53.82;99832.78;2084103;28;19936;-43
2022/05/11 04:58:22;;;;;;;;;;;;;;;20.85;53.90;99833.81;2084961;28;20285;-44
2022/05/11 04:59:23;;;;;;;;;;;;;;;20.85;53.82;99833.81;2083992;28;20087;-44
2022/05/11 05:00:25;;;;;;;;;;;;;;;20.85;53.61;99824.72;2084959;28;19947;-43
2022/05/11 05:01:26;;;;;;;;;;;;;;;20.85;53.57;99830.19;2084191;28;19969;-45
2022/05/11 05:02:29;;;;;;;;;;;;;;;20.84;53.92;99832.09;2080485;28;19968;-43
2022/05/11 05:03:29;;;;;;;;;;;;;;;20.84;53.70;99832.09;2083369;28;19920;-45
2022/05/11 05:04:30;;;;;;;;;;;;;;;20.83;53.75;99833.13;2076962;28;19924;-44
2022/05/11 05:05:31;;;;;;;;;;;;;;;20.83;53.94;99835.88;2084467;28;20202;-43
2022/05/11 05:06:34;;;;;;;;;;;;;;;20.84;53.75;99837.56;2079481;28;19927;-44
2022/05/11 05:07:34;;;;;;;;;;;;;;;20.84;53.78;99833.97;2083332;28;19920;-43
2022/05/11 05:08:34;;;;;;;;;;;;;;;20.84;53.82;99834.84;2084200;28;19927;-43
2022/05/11 05:09:35;;;;;;;;;;;;;;;20.84;53.59;99837.56;2082543;28;20261;-43
2022/05/11 05:10:36;;;;;;;;;;;;;;;20.84;53.63;99843.06;2082565;28;19968;-43
2022/05/11 05:11:36;;;;;;;;;;;;;;;20.85;53.58;99839.31;2077584;28;19908;-43
2022/05/11 05:12:37;;;;;;;;;;;;;;;20.85;53.65;99833.81;2078548;28;19908;-43
2022/05/11 05:13:37;;;;;;;;;;;;;;;20.85;53.73;99833.81;2085676;28;20724;-46
2022/05/11 05:14:38;;;;;;;;;;;;;;;20.84;53.74;99837.56;2080655;28;19921;-45
2022/05/11 05:15:40;;;;;;;;;;;;;;;20.85;53.64;99838.41;2076999;28;19952;-43
2022/05/11 05:16:41;;;;;;;;;;;;;;;20.84;53.84;99837.56;2068117;28;19924;-43
2022/05/11 05:17:41;;;;;;;;;;;;;;;20.85;53.73;99832.94;2077627;28;20002;-43
2022/05/11 05:18:42;;;;;;;;;;;;;;;20.83;54.04;99830.38;2080743;28;19915;-43
2022/05/11 05:19:43;;;;;;;;;;;;;;;20.84;53.70;99842.19;2080364;28;20088;-43
2022/05/11 05:20:43;;;;;;;;;;;;;;;20.83;53.90;99835.88;2083171;28;20128;-44
2022/05/11 05:21:44;;;;;;;;;;;;;;;20.83;53.83;99835.88;2088454;28;20526;-44
2022/05/11 05:22:44;;;;;;;;;;;;;;;20.83;54.06;99852.31;2084522;28;19962;-43
2022/05/11 05:23:45;;;;;;;;;;;;;;;20.83;53.80;99845.97;2080981;28;19920;-46
2022/05/11 05:24:46;;;;;;;;;;;;;;;20.82;54.01;99845.09;2080904;28;20027;-43
2022/05/11 05:25:46;;;;;;;;;;;;;;;20.83;54.00;99846.81;2085806;28;19912;-43
2022/05/11 05:26:46;;;;;;;;;;;;;;;20.83;54.04;99846.81;2090251;28;19920;-42
2022/05/11 05:27:49;;;;;;;;;;;;;;;20.84;53.84;99848.53;2083486;28;19939;-43